Time;durP1;ratioP1;P1;durP2;ratioP2;P2;SDS_P1;SDS_P2;PMS_P1;PMS_P2;Temp;Humidity;BMP_temperature;BMP_pressure;BME280_temperature;BME280_humidity;BME280_pressure;Samples;Min_cycle;Max_cycle;Signal;HPM_P1;HPM_P2
2023/03/27 00:00:56;;;;;;;4.57;4.17;;;4.50;64.10;;;;;;6263480;28;20238;-83
2023/03/27 00:03:59;;;;;;;4.43;4.10;;;4.40;64.60;;;;;;6282184;28;20702;-81
2023/03/27 00:07:03;;;;;;;4.33;3.90;;;4.40;64.50;;;;;;6282647;28;20257;-80
2023/03/27 00:10:07;;;;;;;3.90;3.60;;;4.40;64.30;;;;;;6284050;28;20241;-82
2023/03/27 00:13:11;;;;;;;6.50;3.90;;;4.30;64.30;;;;;;6298853;28;20222;-77
2023/03/27 00:16:15;;;;;;;4.53;4.13;;;4.30;64.40;;;;;;6317513;28;20315;-78
2023/03/27 00:19:19;;;;;;;4.13;3.80;;;4.30;64.30;;;;;;6300755;28;20222;-78
2023/03/27 00:22:22;;;;;;;4.23;3.80;;;4.20;64.40;;;;;;6298816;28;20269;-77
2023/03/27 00:25:26;;;;;;;4.47;4.10;;;4.30;64.30;;;;;;6279086;28;20228;-75
2023/03/27 00:28:29;;;;;;;4.47;3.77;;;4.20;64.70;;;;;;6276982;28;20242;-76
2023/03/27 00:31:34;;;;;;;6.83;4.20;;;4.10;64.70;;;;;;6276375;28;20251;-79
2023/03/27 00:34:37;;;;;;;4.13;3.73;;;4.10;65.00;;;;;;6269023;28;20254;-80
2023/03/27 00:37:41;;;;;;;3.90;3.70;;;4.00;65.40;;;;;;6272917;28;20328;-80
2023/03/27 00:40:46;;;;;;;4.77;4.00;;;4.00;65.40;;;;;;6263420;28;20962;-81
2023/03/27 00:43:53;;;;;;;6.23;4.30;;;4.00;65.80;;;;;;6259536;28;20234;-78
2023/03/27 00:46:58;;;;;;;5.40;4.63;;;4.00;66.10;;;;;;6269135;28;20257;-79
2023/03/27 00:50:05;;;;;;;5.47;3.77;;;4.10;66.00;;;;;;6259580;28;20703;-83
2023/03/27 00:53:12;;;;;;;7.50;4.07;;;4.00;65.90;;;;;;6276728;28;20743;-82
2023/03/27 00:56:16;;;;;;;4.50;4.10;;;4.10;65.90;;;;;;6257051;28;20242;-81
2023/03/27 00:59:23;;;;;;;4.37;3.87;;;4.10;66.00;;;;;;6264542;28;20311;-81
2023/03/27 01:02:28;;;;;;;5.13;4.33;;;4.10;66.00;;;;;;6259535;28;20284;-80
2023/03/27 01:05:33;;;;;;;4.73;4.10;;;4.10;65.70;;;;;;6265101;28;20619;-77
2023/03/27 01:08:37;;;;;;;4.57;4.30;;;4.00;66.00;;;;;;6262673;28;20500;-81
2023/03/27 01:11:51;;;;;;;8.93;4.20;;;4.00;66.10;;;;;;6260836;28;20242;-82
2023/03/27 01:15:09;;;;;;;5.90;4.20;;;4.00;66.10;;;;;;6267312;28;20376;-78
2023/03/27 01:18:29;;;;;;;4.27;4.03;;;3.90;66.20;;;;;;6261563;28;20238;-81
2023/03/27 01:22:04;;;;;;;4.93;4.60;;;3.90;66.60;;;;;;6253727;28;20237;-81
2023/03/27 01:25:38;;;;;;;4.50;4.10;;;3.90;66.60;;;;;;6256875;28;20336;-78
2023/03/27 01:28:50;;;;;;;4.20;4.00;;;3.80;66.80;;;;;;6260476;28;20312;-79
2023/03/27 01:32:18;;;;;;;4.87;4.47;;;3.80;67.00;;;;;;6269854;28;20645;-80
2023/03/27 01:36:03;;;;;;;4.17;3.83;;;3.70;67.20;;;;;;6247972;28;20248;-81
2023/03/27 01:39:35;;;;;;;4.30;4.00;;;3.70;67.40;;;;;;6259092;28;20252;-81
2023/03/27 01:42:45;;;;;;;5.30;4.60;;;3.70;67.60;;;;;;6250196;28;20231;-79
2023/03/27 01:45:54;;;;;;;4.57;4.00;;;3.70;67.30;;;;;;6257945;28;20244;-81
2023/03/27 01:49:03;;;;;;;5.13;4.40;;;3.70;67.50;;;;;;6262728;28;20749;-82
2023/03/27 01:52:11;;;;;;;4.77;4.37;;;3.70;67.50;;;;;;6265152;28;20260;-81
2023/03/27 01:55:22;;;;;;;4.23;3.90;;;3.60;67.40;;;;;;6266512;28;20238;-79
2023/03/27 01:58:32;;;;;;;5.77;4.80;;;3.60;67.30;;;;;;6260134;28;20868;-82
2023/03/27 02:01:41;;;;;;;4.70;4.40;;;3.60;67.20;;;;;;6256756;28;20263;-83
2023/03/27 02:04:52;;;;;;;4.97;4.50;;;3.50;67.30;;;;;;6281361;28;20613;-80
2023/03/27 02:08:00;;;;;;;3.83;3.73;;;3.40;67.30;;;;;;6271053;28;20240;-76
2023/03/27 02:11:07;;;;;;;4.47;4.20;;;3.40;67.40;;;;;;6259748;28;20320;-80
2023/03/27 02:14:14;;;;;;;4.40;4.10;;;3.40;67.70;;;;;;6264965;28;20759;-79
2023/03/27 02:17:19;;;;;;;4.63;4.00;;;3.50;67.70;;;;;;6236065;28;20702;-80
2023/03/27 02:20:23;;;;;;;5.07;4.30;;;3.50;67.20;;;;;;6244759;28;20249;-82
2023/03/27 02:23:30;;;;;;;4.27;3.90;;;3.50;67.10;;;;;;6283525;28;20353;-78
2023/03/27 02:26:45;;;;;;;3.93;3.77;;;3.40;67.10;;;;;;6289191;28;20300;-80
2023/03/27 02:30:02;;;;;;;3.50;3.43;;;3.30;66.80;;;;;;6293560;28;20236;-79
2023/03/27 02:33:16;;;;;;;3.93;3.73;;;3.30;66.80;;;;;;6297637;28;20253;-75
2023/03/27 02:36:30;;;;;;;5.03;4.07;;;3.30;66.80;;;;;;6290973;28;20259;-79
2023/03/27 02:39:39;;;;;;;4.13;3.93;;;3.10;67.00;;;;;;6296714;28;20297;-76
2023/03/27 02:42:56;;;;;;;3.67;3.67;;;3.10;67.30;;;;;;6278201;28;20214;-82
2023/03/27 02:46:08;;;;;;;3.80;3.70;;;3.00;67.20;;;;;;6271161;28;20325;-80
2023/03/27 02:49:16;;;;;;;3.70;3.60;;;2.90;67.20;;;;;;6265475;28;20234;-81
2023/03/27 02:52:23;;;;;;;3.73;3.63;;;2.90;67.30;;;;;;6276200;28;20403;-80
2023/03/27 02:55:32;;;;;;;3.60;3.50;;;2.70;67.10;;;;;;6276869;28;20230;-78
2023/03/27 02:58:43;;;;;;;3.40;3.40;;;2.70;67.30;;;;;;6278179;28;20238;-76
2023/03/27 03:01:47;;;;;;;4.67;4.37;;;2.70;67.10;;;;;;6286705;28;20230;-76
2023/03/27 03:04:55;;;;;;;4.00;3.80;;;2.70;66.70;;;;;;6296740;28;20232;-77
2023/03/27 03:07:59;;;;;;;4.03;3.83;;;2.70;66.50;;;;;;6282397;28;20238;-77
2023/03/27 03:11:03;;;;;;;3.87;3.80;;;2.70;65.30;;;;;;6312486;28;20238;-78
2023/03/27 03:14:08;;;;;;;3.63;3.40;;;2.70;65.70;;;;;;6302905;28;20237;-79
2023/03/27 03:17:11;;;;;;;3.53;3.33;;;2.70;65.00;;;;;;6312106;28;20328;-77
2023/03/27 03:20:15;;;;;;;4.47;4.17;;;2.60;64.20;;;;;;6297750;28;20225;-78
2023/03/27 03:23:18;;;;;;;3.67;3.67;;;2.60;64.00;;;;;;6317370;28;20232;-77
2023/03/27 03:26:21;;;;;;;3.40;3.40;;;2.60;64.50;;;;;;6307553;28;20226;-77
2023/03/27 03:29:28;;;;;;;3.23;3.13;;;2.50;64.50;;;;;;6286685;28;20269;-77
2023/03/27 03:32:32;;;;;;;3.30;3.20;;;2.50;64.60;;;;;;6275198;28;20228;-76
2023/03/27 03:35:36;;;;;;;3.50;3.30;;;2.40;64.70;;;;;;6299456;28;20213;-76
2023/03/27 03:38:40;;;;;;;3.60;3.50;;;2.30;65.00;;;;;;6311190;28;20233;-77
2023/03/27 03:41:43;;;;;;;4.00;3.70;;;2.30;65.10;;;;;;6320039;28;20217;-78
2023/03/27 03:44:50;;;;;;;4.00;3.80;;;2.30;65.30;;;;;;6314909;28;20246;-77
2023/03/27 03:47:55;;;;;;;3.80;3.70;;;2.20;65.60;;;;;;6318999;28;20243;-77
2023/03/27 03:50:59;;;;;;;5.37;3.70;;;2.10;65.90;;;;;;6317107;28;20226;-78
2023/03/27 03:54:04;;;;;;;3.63;3.50;;;2.10;65.80;;;;;;6291085;28;21197;-80
2023/03/27 03:57:07;;;;;;;3.83;3.73;;;2.10;66.00;;;;;;6297084;28;20233;-77
2023/03/27 04:00:15;;;;;;;3.73;3.53;;;2.00;66.00;;;;;;6293201;28;20226;-78
2023/03/27 04:03:19;;;;;;;3.67;3.47;;;1.90;66.30;;;;;;6295277;28;20225;-75
2023/03/27 04:06:24;;;;;;;3.80;3.60;;;1.90;66.20;;;;;;6274911;28;20248;-76
2023/03/27 04:09:27;;;;;;;4.20;3.80;;;2.00;66.20;;;;;;6295589;28;20222;-76
2023/03/27 04:12:30;;;;;;;3.77;3.53;;;2.00;66.00;;;;;;6291557;28;20248;-77
2023/03/27 04:15:35;;;;;;;3.90;3.80;;;2.00;66.20;;;;;;6278571;28;20233;-76
2023/03/27 04:18:39;;;;;;;3.70;3.60;;;1.90;66.50;;;;;;6279621;28;20240;-80
2023/03/27 04:21:43;;;;;;;3.57;3.47;;;1.90;66.40;;;;;;6256236;28;20253;-81
2023/03/27 04:24:49;;;;;;;3.77;3.60;;;1.90;66.60;;;;;;6254581;28;20227;-77
2023/03/27 04:27:55;;;;;;;4.23;3.83;;;1.80;67.00;;;;;;6266583;28;20309;-77
2023/03/27 04:31:00;;;;;;;3.87;3.77;;;1.80;67.50;;;;;;6263210;28;20658;-77
2023/03/27 04:34:03;;;;;;;3.90;3.60;;;1.80;67.50;;;;;;6284875;28;20268;-77
2023/03/27 04:37:06;;;;;;;4.57;4.10;;;1.70;67.60;;;;;;6286631;28;20225;-76
2023/03/27 04:40:12;;;;;;;3.77;3.70;;;1.70;67.60;;;;;;6285660;28;20238;-76
2023/03/27 04:43:16;;;;;;;3.70;3.60;;;1.70;67.70;;;;;;6291296;28;20681;-77
2023/03/27 04:46:20;;;;;;;3.80;3.50;;;1.70;67.70;;;;;;6274638;28;20634;-78
2023/03/27 04:49:37;;;;;;;4.20;3.90;;;1.70;67.70;;;;;;6283565;28;20244;-78
2023/03/27 04:52:41;;;;;;;4.10;3.80;;;1.60;67.70;;;;;;6265275;28;20731;-76
2023/03/27 04:55:44;;;;;;;3.30;3.30;;;1.60;67.30;;;;;;6265328;28;20221;-76
2023/03/27 04:58:47;;;;;;;4.00;3.70;;;1.60;67.30;;;;;;6261891;28;20230;-76
2023/03/27 05:01:52;;;;;;;3.67;3.57;;;1.60;67.00;;;;;;6255744;28;20230;-75
2023/03/27 05:05:00;;;;;;;4.13;3.93;;;1.60;67.40;;;;;;6251968;28;20658;-75
2023/03/27 05:08:04;;;;;;;3.97;3.80;;;1.70;67.20;;;;;;6236302;28;20246;-75
2023/03/27 05:11:07;;;;;;;4.47;4.27;;;1.70;67.20;;;;;;6265692;28;20252;-74
2023/03/27 05:14:11;;;;;;;4.53;4.33;;;1.80;67.10;;;;;;6263519;28;20337;-77
2023/03/27 05:17:15;;;;;;;4.27;4.00;;;1.80;67.10;;;;;;6267381;28;20250;-77
2023/03/27 05:20:21;;;;;;;4.47;4.17;;;1.90;67.30;;;;;;6261917;28;20439;-76
2023/03/27 05:23:24;;;;;;;3.90;3.70;;;1.90;67.10;;;;;;6251409;28;20807;-76
2023/03/27 05:26:27;;;;;;;3.83;3.73;;;1.90;66.80;;;;;;6258476;28;20264;-77
2023/03/27 05:29:32;;;;;;;4.03;3.83;;;1.90;66.90;;;;;;6258026;28;20236;-76
2023/03/27 05:32:52;;;;;;;3.90;3.70;;;1.80;66.80;;;;;;6257093;28;20265;-75
2023/03/27 05:35:57;;;;;;;4.20;4.00;;;1.80;67.00;;;;;;6261612;28;20265;-77
2023/03/27 05:39:01;;;;;;;3.83;3.70;;;1.70;67.50;;;;;;6261419;28;20293;-74
2023/03/27 05:42:04;;;;;;;3.77;3.63;;;1.70;67.30;;;;;;6266320;28;20310;-75
2023/03/27 05:45:08;;;;;;;4.03;3.83;;;1.70;67.30;;;;;;6260346;28;20230;-77
2023/03/27 05:48:15;;;;;;;4.20;3.90;;;1.60;67.30;;;;;;6253771;28;20291;-76
2023/03/27 05:51:20;;;;;;;4.13;3.80;;;1.70;67.20;;;;;;6247927;28;20325;-77
2023/03/27 05:54:27;;;;;;;4.10;3.83;;;1.70;67.40;;;;;;6256563;28;20253;-78
2023/03/27 05:57:31;;;;;;;4.10;4.00;;;1.70;67.40;;;;;;6259153;28;20361;-77
2023/03/27 06:00:35;;;;;;;4.03;3.90;;;1.80;67.50;;;;;;6262582;28;20303;-76
2023/03/27 06:03:39;;;;;;;4.33;4.23;;;1.80;67.50;;;;;;6257577;28;20242;-79
2023/03/27 06:06:44;;;;;;;4.23;4.13;;;1.90;67.30;;;;;;6236614;28;20301;-78
2023/03/27 06:09:48;;;;;;;4.27;4.03;;;1.90;67.00;;;;;;6249438;28;20242;-77
2023/03/27 06:13:03;;;;;;;4.50;4.10;;;1.90;66.90;;;;;;6263275;28;20717;-76
2023/03/27 06:16:10;;;;;;;4.07;3.87;;;1.90;67.00;;;;;;6264805;28;20234;-78
2023/03/27 06:19:15;;;;;;;4.10;3.90;;;2.00;66.80;;;;;;6247576;28;20301;-77
2023/03/27 06:22:18;;;;;;;4.47;4.07;;;2.10;66.40;;;;;;6263692;28;20306;-76
2023/03/27 06:25:23;;;;;;;4.40;4.00;;;2.10;66.20;;;;;;6260043;28;20241;-78
2023/03/27 06:28:27;;;;;;;4.27;4.13;;;2.20;66.00;;;;;;6248438;28;20829;-75
2023/03/27 06:31:30;;;;;;;4.37;4.17;;;2.30;65.20;;;;;;6260881;28;20749;-77
2023/03/27 06:34:34;;;;;;;6.90;4.33;;;2.30;64.90;;;;;;6262548;28;20253;-76
2023/03/27 06:37:38;;;;;;;4.40;4.30;;;2.40;64.50;;;;;;6268356;28;20233;-75
2023/03/27 06:40:41;;;;;;;3.93;3.80;;;2.40;64.10;;;;;;6268918;28;20238;-76
2023/03/27 06:43:45;;;;;;;4.33;4.00;;;2.50;63.90;;;;;;6252702;28;20295;-76
2023/03/27 06:46:48;;;;;;;4.40;4.20;;;2.70;63.90;;;;;;6262920;28;20230;-76
2023/03/27 06:49:52;;;;;;;4.90;4.60;;;2.90;63.60;;;;;;6259938;28;20231;-77
2023/03/27 06:53:00;;;;;;;4.17;3.90;;;3.10;63.70;;;;;;6265184;28;20635;-75
2023/03/27 06:56:04;;;;;;;3.80;3.70;;;3.30;62.60;;;;;;6264944;28;20605;-75
2023/03/27 06:59:08;;;;;;;4.27;4.17;;;3.40;62.40;;;;;;6257387;28;20339;-78
2023/03/27 07:02:12;;;;;;;4.10;3.90;;;3.30;62.20;;;;;;6255367;28;20318;-78
2023/03/27 07:05:17;;;;;;;4.70;4.27;;;3.40;62.40;;;;;;6274447;28;20230;-77
2023/03/27 07:08:20;;;;;;;4.73;4.43;;;3.50;61.90;;;;;;6261842;28;20891;-76
2023/03/27 07:11:27;;;;;;;5.70;4.40;;;3.50;62.30;;;;;;6257242;28;20864;-80
2023/03/27 07:14:33;;;;;;;4.40;4.10;;;3.30;62.60;;;;;;6257319;28;20753;-77
2023/03/27 07:17:36;;;;;;;4.60;4.30;;;3.30;62.80;;;;;;6249438;28;20296;-77
2023/03/27 07:20:52;;;;;;;4.33;4.03;;;3.10;63.20;;;;;;6259733;28;20515;-77
2023/03/27 07:23:55;;;;;;;4.30;4.10;;;3.10;63.30;;;;;;6276402;28;20233;-78
2023/03/27 07:26:58;;;;;;;4.27;4.00;;;3.50;63.30;;;;;;6245099;28;20363;-76
2023/03/27 07:30:01;;;;;;;4.33;4.13;;;3.90;62.30;;;;;;6283621;28;20225;-77
2023/03/27 07:33:08;;;;;;;3.90;3.80;;;3.90;62.10;;;;;;6282483;28;20396;-79
2023/03/27 07:36:15;;;;;;;4.23;4.03;;;3.90;61.70;;;;;;6256519;28;20294;-77
2023/03/27 07:39:18;;;;;;;4.30;3.90;;;3.90;62.00;;;;;;6269193;28;20741;-79
2023/03/27 07:42:21;;;;;;;4.30;4.10;;;4.00;61.60;;;;;;6265526;28;20839;-77
2023/03/27 07:45:24;;;;;;;4.30;4.20;;;4.00;61.50;;;;;;6251133;28;20249;-76
2023/03/27 07:48:28;;;;;;;4.00;3.60;;;4.00;60.90;;;;;;6271945;28;20233;-76
2023/03/27 07:51:33;;;;;;;4.37;4.03;;;4.00;60.50;;;;;;6255756;28;20306;-79
2023/03/27 07:54:36;;;;;;;4.27;4.17;;;3.90;61.00;;;;;;6277028;28;20998;-77
2023/03/27 07:57:39;;;;;;;4.53;4.23;;;3.90;61.30;;;;;;6264401;28;20238;-78
2023/03/27 08:01:03;;;;;;;4.23;4.07;;;3.90;61.20;;;;;;6260320;28;20250;-77
2023/03/27 08:04:06;;;;;;;4.20;3.90;;;3.80;61.00;;;;;;6244052;28;20287;-76
2023/03/27 08:07:12;;;;;;;3.70;3.60;;;3.70;60.20;;;;;;6261388;28;20234;-76
2023/03/27 08:10:15;;;;;;;4.00;3.80;;;3.70;59.90;;;;;;6251182;28;20239;-76
2023/03/27 08:13:19;;;;;;;4.10;3.80;;;3.90;59.80;;;;;;6264694;28;22490;-79
2023/03/27 08:16:26;;;;;;;3.83;3.63;;;4.10;58.60;;;;;;6254521;28;20290;-76
2023/03/27 08:19:32;;;;;;;3.37;3.37;;;4.10;58.50;;;;;;6270801;28;20321;-76
2023/03/27 08:22:38;;;;;;;3.43;3.33;;;4.20;57.30;;;;;;6228627;28;20254;-76
2023/03/27 08:25:41;;;;;;;3.60;3.47;;;4.40;56.70;;;;;;6263478;28;20232;-79
2023/03/27 08:28:44;;;;;;;4.30;4.20;;;4.50;56.80;;;;;;6253711;28;20253;-79
2023/03/27 08:31:47;;;;;;;3.67;3.30;;;4.60;56.60;;;;;;6263155;28;20719;-75
2023/03/27 08:34:50;;;;;;;3.60;3.30;;;4.70;56.50;;;;;;6260862;28;20380;-76
2023/03/27 08:37:55;;;;;;;3.60;3.40;;;4.70;56.30;;;;;;6259474;28;20237;-78
2023/03/27 08:40:58;;;;;;;3.47;3.37;;;4.90;54.90;;;;;;6254498;28;20919;-76
2023/03/27 08:44:05;;;;;;;3.53;3.43;;;5.00;55.10;;;;;;6264160;28;20294;-78
2023/03/27 08:47:16;;;;;;;3.70;3.40;;;5.30;55.20;;;;;;6256099;28;20262;-78
2023/03/27 08:50:31;;;;;;;3.30;3.30;;;5.50;54.50;;;;;;6266074;28;20779;-77
2023/03/27 08:53:41;;;;;;;3.30;3.20;;;5.50;54.10;;;;;;6250229;28;20238;-79
2023/03/27 08:56:45;;;;;;;3.50;3.40;;;5.60;53.40;;;;;;6252663;28;20240;-77
2023/03/27 08:59:49;;;;;;;3.63;3.53;;;5.90;53.30;;;;;;6250075;28;20317;-75
2023/03/27 09:02:58;;;;;;;3.50;3.40;;;6.00;52.50;;;;;;6252423;28;20244;-77
2023/03/27 09:06:07;;;;;;;3.70;3.40;;;5.80;52.50;;;;;;6264453;28;20376;-78
2023/03/27 09:09:40;;;;;;;3.87;3.60;;;5.50;53.40;;;;;;6281445;28;20335;-77
2023/03/27 09:13:03;;;;;;;3.33;3.27;;;5.30;53.70;;;;;;6273503;28;20272;-77
2023/03/27 09:16:14;;;;;;;3.43;3.30;;;5.20;54.20;;;;;;6303640;28;20229;-78
2023/03/27 09:19:28;;;;;;;3.40;3.30;;;5.30;53.70;;;;;;6301102;28;20230;-76
2023/03/27 09:22:42;;;;;;;3.40;3.30;;;5.50;53.10;;;;;;6282016;28;20261;-77
2023/03/27 09:25:51;;;;;;;3.20;3.20;;;5.60;52.70;;;;;;6268259;28;20234;-76
2023/03/27 09:28:59;;;;;;;3.43;3.20;;;5.90;51.80;;;;;;6266808;28;20760;-76
2023/03/27 09:32:03;;;;;;;4.03;3.53;;;5.90;51.50;;;;;;6288837;28;20248;-79
2023/03/27 09:35:07;;;;;;;3.53;3.40;;;5.80;52.10;;;;;;6287994;28;20234;-78
2023/03/27 09:38:24;;;;;;;3.43;3.20;;;5.70;52.70;;;;;;6287416;28;20256;-79
2023/03/27 09:41:34;;;;;;;3.87;3.57;;;5.90;52.20;;;;;;6283339;28;20261;-76
2023/03/27 09:44:40;;;;;;;3.50;3.37;;;5.80;51.90;;;;;;6258158;28;20381;-80
2023/03/27 09:47:50;;;;;;;3.90;3.70;;;5.70;52.10;;;;;;6259202;28;20376;-77
2023/03/27 09:50:55;;;;;;;4.57;3.27;;;5.60;50.60;;;;;;6250644;28;20313;-77
2023/03/27 09:53:59;;;;;;;3.13;3.03;;;5.60;51.00;;;;;;6260210;28;20302;-75
2023/03/27 09:57:10;;;;;;;3.70;3.50;;;5.90;51.70;;;;;;6281854;28;20233;-77
2023/03/27 10:00:29;;;;;;;3.00;2.90;;;5.90;51.70;;;;;;6287021;28;20303;-77
2023/03/27 10:03:47;;;;;;;3.23;3.13;;;5.70;50.10;;;;;;6267733;28;20389;-77
2023/03/27 10:06:58;;;;;;;3.20;3.00;;;6.00;50.20;;;;;;6277698;28;20237;-75
2023/03/27 10:10:07;;;;;;;3.20;3.07;;;6.40;50.20;;;;;;6236205;28;20242;-80
2023/03/27 10:13:15;;;;;;;3.20;3.00;;;6.20;49.50;;;;;;6260432;28;20888;-78
2023/03/27 10:16:21;;;;;;;3.30;3.10;;;6.20;49.40;;;;;;6257735;28;20234;-78
2023/03/27 10:19:29;;;;;;;3.10;3.00;;;6.40;49.60;;;;;;6253456;28;20234;-79
2023/03/27 10:22:36;;;;;;;3.47;3.27;;;6.50;48.50;;;;;;6260809;28;20265;-78
2023/03/27 10:26:10;;;;;;;3.33;3.23;;;6.70;48.40;;;;;;6246350;28;20226;-78
2023/03/27 10:29:25;;;;;;;3.57;3.30;;;6.70;48.70;;;;;;6259819;28;20258;-79
2023/03/27 10:32:43;;;;;;;3.53;3.23;;;6.40;48.10;;;;;;6243921;28;20238;-76
2023/03/27 10:35:49;;;;;;;3.33;3.23;;;6.40;47.80;;;;;;6287725;28;20238;-77
2023/03/27 10:38:57;;;;;;;3.00;3.00;;;6.60;47.90;;;;;;6289378;28;20229;-78
2023/03/27 10:42:06;;;;;;;3.20;3.10;;;7.00;47.70;;;;;;6284543;28;20477;-80
2023/03/27 10:45:17;;;;;;;4.43;3.00;;;7.10;47.70;;;;;;6287760;28;20229;-77
2023/03/27 10:48:34;;;;;;;3.00;3.00;;;7.30;46.80;;;;;;6280708;28;20244;-80
2023/03/27 10:51:46;;;;;;;3.10;3.00;;;7.40;47.20;;;;;;6261304;28;20230;-77
2023/03/27 10:55:02;;;;;;;2.97;2.77;;;7.70;46.50;;;;;;6252910;28;20612;-78
2023/03/27 10:58:13;;;;;;;2.73;2.73;;;7.80;46.20;;;;;;6246200;28;20241;-78
2023/03/27 11:01:25;;;;;;;3.30;3.10;;;7.30;45.80;;;;;;6251655;28;20230;-77
2023/03/27 11:04:39;;;;;;;3.40;3.20;;;7.00;47.30;;;;;;6249011;28;20245;-80
2023/03/27 11:07:48;;;;;;;3.80;3.57;;;6.90;47.70;;;;;;6259290;28;20227;-79
2023/03/27 11:10:52;;;;;;;3.30;3.17;;;7.10;47.90;;;;;;6252303;28;20454;-76
2023/03/27 11:14:01;;;;;;;3.47;3.27;;;7.20;46.50;;;;;;6249514;28;20835;-79
2023/03/27 11:17:08;;;;;;;3.47;3.13;;;7.40;47.20;;;;;;6253224;28;20243;-79
2023/03/27 11:20:21;;;;;;;3.00;2.90;;;7.30;46.80;;;;;;6258422;28;20488;-78
2023/03/27 11:23:34;;;;;;;3.57;3.37;;;7.50;46.50;;;;;;6269469;28;20234;-76
2023/03/27 11:26:54;;;;;;;3.20;3.10;;;7.60;46.80;;;;;;6273824;28;20452;-76
2023/03/27 11:30:08;;;;;;;3.00;3.00;;;7.80;45.50;;;;;;6252917;28;20233;-78
2023/03/27 11:33:39;;;;;;;2.93;2.83;;;8.00;43.60;;;;;;6256726;28;20237;-76
2023/03/27 11:36:50;;;;;;;3.00;2.80;;;8.00;43.60;;;;;;6261908;28;20248;-79
2023/03/27 11:39:58;;;;;;;2.80;2.70;;;8.00;43.70;;;;;;6261246;28;20226;-79
2023/03/27 11:43:01;;;;;;;3.03;2.93;;;8.40;43.60;;;;;;6262505;28;20723;-78
2023/03/27 11:46:14;;;;;;;2.83;2.83;;;8.90;43.60;;;;;;6259321;28;20242;-77
2023/03/27 11:49:38;;;;;;;3.00;2.80;;;9.00;43.20;;;;;;6275810;28;20300;-78
2023/03/27 11:52:52;;;;;;;3.50;3.30;;;8.90;43.10;;;;;;6262337;28;20235;-79
2023/03/27 11:56:14;;;;;;;2.70;2.70;;;8.60;43.00;;;;;;6267013;28;21989;-77
2023/03/27 11:59:31;;;;;;;2.80;2.70;;;8.10;43.90;;;;;;6273758;28;20333;-77
2023/03/27 12:02:56;;;;;;;3.23;3.00;;;8.00;44.30;;;;;;6268814;28;20252;-78
2023/03/27 12:06:12;;;;;;;2.93;2.83;;;7.80;44.20;;;;;;6257912;28;20239;-78
2023/03/27 12:09:34;;;;;;;4.53;3.10;;;7.50;44.60;;;;;;6270233;28;20258;-77
2023/03/27 12:13:16;;;;;;;3.23;3.03;;;7.30;44.80;;;;;;6265356;28;20399;-76
2023/03/27 12:16:43;;;;;;;2.70;2.70;;;7.20;44.40;;;;;;6231400;28;20239;-79
2023/03/27 12:20:27;;;;;;;4.57;3.70;;;7.10;44.60;;;;;;6267944;28;20354;-78
2023/03/27 12:23:56;;;;;;;2.80;2.70;;;7.00;46.20;;;;;;6255726;28;20234;-77
2023/03/27 12:27:27;;;;;;;3.67;3.27;;;7.20;46.20;;;;;;6241207;28;20250;-79
2023/03/27 12:30:46;;;;;;;3.83;3.00;;;7.20;45.70;;;;;;6255881;28;20320;-79
2023/03/27 12:33:59;;;;;;;3.03;2.93;;;7.30;46.30;;;;;;6268401;28;20299;-79
2023/03/27 12:37:05;;;;;;;2.90;2.73;;;7.50;46.50;;;;;;6262526;28;20234;-78
2023/03/27 12:40:26;;;;;;;3.40;3.30;;;7.50;46.40;;;;;;6253104;28;20252;-78
2023/03/27 12:43:32;;;;;;;2.80;2.80;;;7.60;46.20;;;;;;6257957;28;20309;-78
2023/03/27 12:46:38;;;;;;;3.17;3.07;;;7.80;45.30;;;;;;6265340;28;20379;-78
2023/03/27 12:49:44;;;;;;;3.20;3.10;;;7.80;45.80;;;;;;6265086;28;20264;-76
2023/03/27 12:52:52;;;;;;;2.93;2.90;;;7.80;45.20;;;;;;6265020;28;20230;-78
2023/03/27 12:56:35;;;;;;;3.10;2.90;;;7.80;45.50;;;;;;6253594;28;20234;-77
2023/03/27 12:59:52;;;;;;;3.17;3.07;;;7.90;45.60;;;;;;6265451;28;20833;-77
2023/03/27 13:03:26;;;;;;;2.50;2.50;;;7.80;45.50;;;;;;6254405;28;20896;-79
2023/03/27 13:06:41;;;;;;;3.03;2.83;;;7.80;44.90;;;;;;6280536;28;20926;-76
2023/03/27 13:09:59;;;;;;;3.20;3.10;;;7.50;45.90;;;;;;6280521;28;20608;-80
2023/03/27 13:13:36;;;;;;;3.30;3.00;;;7.50;46.40;;;;;;6266114;28;20242;-76
2023/03/27 13:17:11;;;;;;;3.73;3.53;;;7.20;47.60;;;;;;6237630;28;20242;-76
2023/03/27 13:20:23;;;;;;;4.70;3.50;;;6.80;49.70;;;;;;6250923;28;20307;-78
2023/03/27 13:23:41;;;;;;;7.63;3.00;;;6.60;50.20;;;;;;6256114;28;20276;-76
2023/03/27 13:26:57;;;;;;;5.80;3.03;;;6.60;50.80;;;;;;6243093;28;20230;-79
2023/03/27 13:30:00;;;;;;;3.20;2.80;;;6.40;51.60;;;;;;6237056;28;20775;-77
2023/03/27 13:33:16;;;;;;;2.80;2.70;;;6.70;51.50;;;;;;6280332;28;20259;-77
2023/03/27 13:36:23;;;;;;;3.70;3.43;;;7.00;50.70;;;;;;6256198;28;20222;-79
2023/03/27 13:39:39;;;;;;;3.30;3.17;;;7.00;50.30;;;;;;6244968;28;20243;-76
2023/03/27 13:42:45;;;;;;;3.13;3.00;;;6.80;50.90;;;;;;6257939;28;20638;-76
2023/03/27 13:45:51;;;;;;;3.40;3.20;;;6.60;52.00;;;;;;6258283;28;20321;-76
2023/03/27 13:49:15;;;;;;;3.20;3.00;;;6.70;52.90;;;;;;6250885;28;20816;-77
2023/03/27 13:52:46;;;;;;;3.00;2.90;;;6.80;53.10;;;;;;6265733;28;20238;-77
2023/03/27 13:56:06;;;;;;;3.40;3.20;;;6.80;52.20;;;;;;6250049;28;20225;-78
2023/03/27 13:59:31;;;;;;;3.20;3.03;;;6.70;51.70;;;;;;6252282;28;20397;-75
2023/03/27 14:03:10;;;;;;;3.30;3.10;;;6.50;50.90;;;;;;6241644;28;20239;-76
2023/03/27 14:07:01;;;;;;;3.50;3.07;;;6.20;50.30;;;;;;6251315;28;20376;-80
2023/03/27 14:10:16;;;;;;;3.10;3.00;;;5.90;50.90;;;;;;6272762;28;20879;-78
2023/03/27 14:13:31;;;;;;;3.00;2.80;;;5.80;51.90;;;;;;6247002;28;20694;-78
2023/03/27 14:17:02;;;;;;;3.00;2.87;;;5.90;51.80;;;;;;6258520;28;20242;-77
2023/03/27 14:20:21;;;;;;;2.93;2.83;;;6.10;52.00;;;;;;6251664;28;20832;-78
2023/03/27 14:23:28;;;;;;;3.57;2.90;;;6.30;51.80;;;;;;6255515;28;20742;-77
2023/03/27 14:26:32;;;;;;;3.07;2.87;;;6.00;52.40;;;;;;6263940;28;20395;-78
2023/03/27 14:29:35;;;;;;;3.17;2.97;;;5.80;52.60;;;;;;6261906;28;20237;-77
2023/03/27 14:32:38;;;;;;;3.03;3.00;;;6.00;52.20;;;;;;6268323;28;20240;-79
2023/03/27 14:35:43;;;;;;;2.90;2.90;;;6.00;52.70;;;;;;6255677;28;20238;-75
2023/03/27 14:38:50;;;;;;;3.53;3.27;;;6.00;52.80;;;;;;6252302;28;25328;-75
2023/03/27 14:41:55;;;;;;;2.80;2.60;;;6.10;52.90;;;;;;6243074;28;20795;-77
2023/03/27 14:45:19;;;;;;;3.17;3.00;;;6.30;52.00;;;;;;6253086;28;20238;-76
2023/03/27 14:48:26;;;;;;;3.40;3.20;;;6.40;52.40;;;;;;6259071;28;20315;-80
2023/03/27 14:51:35;;;;;;;3.10;2.90;;;6.50;52.20;;;;;;6242293;28;20369;-76
2023/03/27 14:54:40;;;;;;;3.27;3.03;;;6.60;52.50;;;;;;6255911;28;20226;-78
2023/03/27 14:58:01;;;;;;;3.50;3.20;;;6.70;52.30;;;;;;6259286;28;20629;-78
2023/03/27 15:01:07;;;;;;;4.00;2.80;;;6.80;51.90;;;;;;6260900;28;20242;-80
2023/03/27 15:04:13;;;;;;;2.97;2.80;;;6.80;51.50;;;;;;6261887;28;20241;-77
2023/03/27 15:07:18;;;;;;;3.50;3.20;;;6.90;51.80;;;;;;6270524;28;20240;-77
2023/03/27 15:10:25;;;;;;;3.47;3.17;;;6.80;51.70;;;;;;6265156;28;20249;-81
2023/03/27 15:13:35;;;;;;;3.10;3.00;;;6.80;51.80;;;;;;6266820;28;20266;-76
2023/03/27 15:16:38;;;;;;;3.80;3.37;;;6.80;51.60;;;;;;6269683;28;20750;-79
2023/03/27 15:19:47;;;;;;;3.17;3.07;;;6.80;51.60;;;;;;6249445;28;20243;-81
2023/03/27 15:22:58;;;;;;;3.37;3.17;;;6.90;51.50;;;;;;6252493;28;20249;-78
2023/03/27 15:26:09;;;;;;;2.83;2.73;;;7.00;51.50;;;;;;6249565;28;20219;-78
2023/03/27 15:29:21;;;;;;;6.10;5.50;;;7.00;51.30;;;;;;6262633;28;20602;-77
2023/03/27 15:32:27;;;;;;;3.73;3.53;;;6.70;52.00;;;;;;6260951;28;20246;-78
2023/03/27 15:35:33;;;;;;;2.97;2.87;;;6.70;51.80;;;;;;6263710;28;20249;-79
2023/03/27 15:38:37;;;;;;;2.60;2.60;;;6.80;51.60;;;;;;6254636;28;20238;-78
2023/03/27 15:41:43;;;;;;;3.20;3.00;;;6.80;51.80;;;;;;6255753;28;20230;-77
2023/03/27 15:44:46;;;;;;;3.20;3.00;;;6.80;51.60;;;;;;6255528;28;20386;-78
2023/03/27 15:47:59;;;;;;;4.00;3.07;;;6.70;51.80;;;;;;6259549;28;20234;-77
2023/03/27 15:51:05;;;;;;;2.97;2.87;;;6.70;51.80;;;;;;6261436;28;20229;-78
2023/03/27 15:54:25;;;;;;;2.83;2.83;;;6.60;51.60;;;;;;6247568;28;20230;-79
2023/03/27 15:57:29;;;;;;;4.73;2.93;;;6.60;51.20;;;;;;6254160;28;20619;-78
2023/03/27 16:00:32;;;;;;;3.13;3.03;;;6.50;51.50;;;;;;6256543;28;20230;-77
2023/03/27 16:03:37;;;;;;;3.20;3.10;;;6.30;52.70;;;;;;6252974;28;20731;-77
2023/03/27 16:06:44;;;;;;;8.47;3.57;;;6.30;53.00;;;;;;6259179;28;20234;-79
2023/03/27 16:09:54;;;;;;;3.23;3.00;;;6.10;54.00;;;;;;6245780;28;20239;-75
2023/03/27 16:13:01;;;;;;;3.97;3.20;;;6.10;54.10;;;;;;6255067;28;20238;-76
2023/03/27 16:16:18;;;;;;;4.07;3.67;;;5.90;55.00;;;;;;6238047;28;20604;-78
2023/03/27 16:19:22;;;;;;;7.37;3.60;;;5.70;55.20;;;;;;6251610;28;20617;-79
2023/03/27 16:22:28;;;;;;;3.67;3.37;;;5.70;55.80;;;;;;6256285;28;20318;-78
2023/03/27 16:25:32;;;;;;;3.57;3.47;;;5.60;57.30;;;;;;6252645;28;20242;-77
2023/03/27 16:28:37;;;;;;;3.00;3.00;;;5.00;61.00;;;;;;6263144;28;20238;-78
2023/03/27 16:31:45;;;;;;;4.03;3.20;;;4.50;62.80;;;;;;6257826;28;20238;-77
2023/03/27 16:34:50;;;;;;;3.50;3.30;;;4.20;63.90;;;;;;6271927;28;20614;-76
2023/03/27 16:37:53;;;;;;;3.27;3.17;;;4.10;64.00;;;;;;6254299;28;20607;-78
2023/03/27 16:40:57;;;;;;;3.20;3.10;;;4.00;63.70;;;;;;6264221;28;20239;-77